CES5680 ZGSZ-ZPLJ
Flight info
| Callsign | CES5680 |
|---|---|
| Flight time | 2h 19m |
| Altitude | 36100 |
| Route | TOMUD R200 LH R339 BSE A599 SGM DCT BUBSU W162 DAL |
| Aircraft | A320/M-SDE3FGHIRWY/LB1 |
Departure
| Time | 2026-04-15 08:22 |
|---|---|
| Airport | Shenzhen Bao'an International Airport (ZGSZ) |
Arrival
| Time | 2026-04-15 10:41 |
|---|---|
| Airport | Lijiang Sanyi International Airport (ZPLJ) |
| Time | Latitude | Longitude | Altitude | Speed | Heading |
|---|---|---|---|---|---|
| 2026-04-15 07:50 | 22.63322 | 113.80779 | 15 ft | 0 kts | 333° |
| 2026-04-15 08:08 | 22.63304 | 113.80789 | 15 ft | 4 kts | 334° |
| 2026-04-15 08:09 | 22.63279 | 113.80801 | 15 ft | 4 kts | 342° |
| 2026-04-15 08:09 | 22.63254 | 113.80805 | 15 ft | 4 kts | 20° |
| 2026-04-15 08:09 | 22.63244 | 113.80798 | 15 ft | 0 kts | 63° |
| 2026-04-15 08:12 | 22.63248 | 113.80806 | 15 ft | 3 kts | 61° |
| 2026-04-15 08:13 | 22.63267 | 113.80846 | 15 ft | 9 kts | 63° |
| 2026-04-15 08:13 | 22.63287 | 113.80887 | 15 ft | 9 kts | 63° |
| 2026-04-15 08:13 | 22.63318 | 113.80956 | 16 ft | 8 kts | 63° |
| 2026-04-15 08:13 | 22.63335 | 113.80990 | 17 ft | 7 kts | 63° |
| 2026-04-15 08:14 | 22.63355 | 113.81034 | 15 ft | 7 kts | 63° |
| 2026-04-15 08:14 | 22.63384 | 113.81097 | 15 ft | 10 kts | 63° |
| 2026-04-15 08:14 | 22.63430 | 113.81118 | 16 ft | 7 kts | 332° |
| 2026-04-15 08:14 | 22.63481 | 113.81090 | 15 ft | 11 kts | 332° |
| 2026-04-15 08:15 | 22.63565 | 113.81044 | 17 ft | 15 kts | 333° |
| 2026-04-15 08:15 | 22.63671 | 113.80986 | 15 ft | 19 kts | 333° |
| 2026-04-15 08:15 | 22.63782 | 113.80924 | 17 ft | 17 kts | 333° |
| 2026-04-15 08:15 | 22.63879 | 113.80871 | 16 ft | 15 kts | 333° |
| 2026-04-15 08:16 | 22.63966 | 113.80824 | 16 ft | 13 kts | 333° |
| 2026-04-15 08:16 | 22.64043 | 113.80781 | 17 ft | 13 kts | 333° |
| 2026-04-15 08:16 | 22.64127 | 113.80735 | 18 ft | 13 kts | 333° |
| 2026-04-15 08:16 | 22.64216 | 113.80686 | 17 ft | 16 kts | 333° |
| 2026-04-15 08:17 | 22.64309 | 113.80635 | 17 ft | 14 kts | 333° |
| 2026-04-15 08:17 | 22.64409 | 113.80580 | 17 ft | 19 kts | 333° |
| 2026-04-15 08:17 | 22.64541 | 113.80507 | 16 ft | 22 kts | 333° |
| 2026-04-15 08:17 | 22.64684 | 113.80429 | 15 ft | 24 kts | 333° |
| 2026-04-15 08:18 | 22.64834 | 113.80347 | 15 ft | 25 kts | 333° |
| 2026-04-15 08:18 | 22.64986 | 113.80263 | 17 ft | 23 kts | 333° |
| 2026-04-15 08:18 | 22.65088 | 113.80207 | 16 ft | 13 kts | 333° |
| 2026-04-15 08:18 | 22.65160 | 113.80167 | 16 ft | 9 kts | 333° |
| 2026-04-15 08:19 | 22.65205 | 113.80176 | 16 ft | 6 kts | 50° |
| 2026-04-15 08:19 | 22.65234 | 113.80234 | 15 ft | 10 kts | 63° |
| 2026-04-15 08:19 | 22.65261 | 113.80293 | 16 ft | 8 kts | 63° |
| 2026-04-15 08:19 | 22.65248 | 113.80336 | 15 ft | 6 kts | 150° |
| 2026-04-15 08:20 | 22.65217 | 113.80353 | 17 ft | 4 kts | 153° |
| 2026-04-15 08:20 | 22.65214 | 113.80354 | 15 ft | 0 kts | 153° |
| 2026-04-15 08:21 | 22.65197 | 113.80364 | 17 ft | 21 kts | 153° |
| 2026-04-15 08:21 | 22.64825 | 113.80568 | 16 ft | 93 kts | 153° |
| 2026-04-15 08:21 | 22.64089 | 113.80972 | 17 ft | 145 kts | 153° |
| 2026-04-15 08:21 | 22.63083 | 113.81522 | 260 ft | 166 kts | 155° |
| 2026-04-15 08:22 | 22.62069 | 113.82078 | 1013 ft | 163 kts | 155° |
| 2026-04-15 08:22 | 22.61055 | 113.82631 | 1733 ft | 163 kts | 155° |
| 2026-04-15 08:22 | 22.60030 | 113.83191 | 2350 ft | 163 kts | 155° |
| 2026-04-15 08:22 | 22.59041 | 113.83737 | 2949 ft | 161 kts | 155° |
| 2026-04-15 08:23 | 22.58002 | 113.84305 | 3376 ft | 173 kts | 155° |
| 2026-04-15 08:23 | 22.56894 | 113.84909 | 3751 ft | 185 kts | 155° |
| 2026-04-15 08:23 | 22.55698 | 113.85561 | 4101 ft | 200 kts | 155° |
| 2026-04-15 08:23 | 22.54425 | 113.86256 | 4513 ft | 210 kts | 155° |
| 2026-04-15 08:24 | 22.53004 | 113.86800 | 4798 ft | 227 kts | 175° |
| 2026-04-15 08:24 | 22.51396 | 113.86627 | 5248 ft | 240 kts | 200° |
| 2026-04-15 08:24 | 22.49951 | 113.85695 | 5908 ft | 246 kts | 224° |
| 2026-04-15 08:24 | 22.48998 | 113.84152 | 6599 ft | 252 kts | 249° |
| 2026-04-15 08:25 | 22.48706 | 113.82267 | 7311 ft | 257 kts | 264° |
| 2026-04-15 08:25 | 22.48569 | 113.80321 | 8004 ft | 262 kts | 263° |
| 2026-04-15 08:25 | 22.48419 | 113.78348 | 8713 ft | 265 kts | 263° |
| 2026-04-15 08:25 | 22.48261 | 113.76355 | 9414 ft | 267 kts | 263° |
| 2026-04-15 08:26 | 22.48096 | 113.74352 | 10109 ft | 269 kts | 263° |
| 2026-04-15 08:26 | 22.47929 | 113.72332 | 10822 ft | 270 kts | 264° |
| 2026-04-15 08:26 | 22.47762 | 113.70302 | 11539 ft | 271 kts | 264° |
| 2026-04-15 08:26 | 22.47595 | 113.68271 | 12268 ft | 272 kts | 265° |
| 2026-04-15 08:27 | 22.47430 | 113.66229 | 12986 ft | 273 kts | 265° |
| 2026-04-15 08:27 | 22.47263 | 113.64179 | 13663 ft | 275 kts | 265° |
| 2026-04-15 08:27 | 22.47096 | 113.62118 | 14327 ft | 276 kts | 265° |
| 2026-04-15 08:27 | 22.46784 | 113.60067 | 14958 ft | 278 kts | 252° |
| 2026-04-15 08:28 | 22.45914 | 113.58180 | 15434 ft | 288 kts | 235° |
| 2026-04-15 08:28 | 22.44466 | 113.56577 | 15542 ft | 311 kts | 223° |
| 2026-04-15 08:28 | 22.42760 | 113.55009 | 15552 ft | 333 kts | 222° |
| 2026-04-15 08:28 | 22.40935 | 113.53339 | 15565 ft | 355 kts | 222° |
| 2026-04-15 08:29 | 22.38984 | 113.51609 | 15557 ft | 369 kts | 217° |
| 2026-04-15 08:29 | 22.36702 | 113.50309 | 15563 ft | 376 kts | 202° |
| 2026-04-15 08:29 | 22.34159 | 113.49589 | 15551 ft | 379 kts | 195° |
| 2026-04-15 08:29 | 22.31591 | 113.48962 | 15554 ft | 379 kts | 195° |
| 2026-04-15 08:30 | 22.29019 | 113.48336 | 15569 ft | 379 kts | 195° |
| 2026-04-15 08:30 | 22.26484 | 113.47588 | 15567 ft | 377 kts | 204° |
| 2026-04-15 08:30 | 22.24173 | 113.46276 | 15763 ft | 376 kts | 217° |
| 2026-04-15 08:30 | 22.22200 | 113.44432 | 16339 ft | 376 kts | 229° |
| 2026-04-15 08:31 | 22.20643 | 113.42180 | 16874 ft | 376 kts | 241° |
| 2026-04-15 08:31 | 22.19555 | 113.39610 | 17397 ft | 377 kts | 249° |
| 2026-04-15 08:31 | 22.18582 | 113.36974 | 17926 ft | 379 kts | 249° |
| 2026-04-15 08:31 | 22.17604 | 113.34331 | 18429 ft | 380 kts | 249° |
| 2026-04-15 08:32 | 22.16617 | 113.31672 | 18891 ft | 383 kts | 249° |
| 2026-04-15 08:32 | 22.15622 | 113.28993 | 19325 ft | 386 kts | 249° |
| 2026-04-15 08:32 | 22.14623 | 113.26297 | 19769 ft | 389 kts | 249° |
| 2026-04-15 08:32 | 22.13613 | 113.23581 | 20197 ft | 391 kts | 248° |
| 2026-04-15 08:33 | 22.12547 | 113.20871 | 20610 ft | 394 kts | 247° |
| 2026-04-15 08:33 | 22.11424 | 113.18161 | 21015 ft | 396 kts | 246° |
| 2026-04-15 08:33 | 22.10271 | 113.15450 | 21399 ft | 399 kts | 246° |
| 2026-04-15 08:33 | 22.09107 | 113.12728 | 21796 ft | 401 kts | 246° |
| 2026-04-15 08:34 | 22.07939 | 113.09987 | 22168 ft | 404 kts | 246° |
| 2026-04-15 08:34 | 22.06772 | 113.07224 | 22528 ft | 406 kts | 246° |
| 2026-04-15 08:34 | 22.05606 | 113.04440 | 22887 ft | 408 kts | 246° |
| 2026-04-15 08:34 | 22.04442 | 113.01640 | 23234 ft | 411 kts | 246° |
| 2026-04-15 08:35 | 22.03278 | 112.98818 | 23564 ft | 413 kts | 247° |
| 2026-04-15 08:35 | 22.02142 | 112.95965 | 23892 ft | 416 kts | 248° |
| 2026-04-15 08:35 | 22.01024 | 112.93082 | 24208 ft | 418 kts | 248° |
| 2026-04-15 08:35 | 21.99912 | 112.90184 | 24533 ft | 419 kts | 248° |
| 2026-04-15 08:36 | 21.98798 | 112.87274 | 24840 ft | 422 kts | 248° |
| 2026-04-15 08:36 | 21.97671 | 112.84344 | 25094 ft | 425 kts | 248° |
| 2026-04-15 08:36 | 21.96531 | 112.81404 | 25395 ft | 426 kts | 248° |
| 2026-04-15 08:36 | 21.95365 | 112.78457 | 25692 ft | 428 kts | 247° |
| 2026-04-15 08:37 | 21.94174 | 112.75506 | 26003 ft | 430 kts | 247° |
| 2026-04-15 08:37 | 21.92975 | 112.72554 | 26308 ft | 431 kts | 247° |
| 2026-04-15 08:37 | 21.91767 | 112.69588 | 26605 ft | 433 kts | 247° |
| 2026-04-15 08:37 | 21.90557 | 112.66612 | 26895 ft | 435 kts | 247° |
| 2026-04-15 08:38 | 21.89346 | 112.63622 | 27165 ft | 436 kts | 247° |
| 2026-04-15 08:38 | 21.88134 | 112.60628 | 27396 ft | 437 kts | 247° |
| 2026-04-15 08:38 | 21.86922 | 112.57633 | 27451 ft | 436 kts | 247° |
| 2026-04-15 08:38 | 21.85710 | 112.54646 | 27462 ft | 436 kts | 247° |
| 2026-04-15 08:39 | 21.84505 | 112.51656 | 27456 ft | 435 kts | 247° |
| 2026-04-15 08:39 | 21.83314 | 112.48658 | 27452 ft | 435 kts | 248° |
| 2026-04-15 08:39 | 21.82133 | 112.45664 | 27454 ft | 435 kts | 248° |
| 2026-04-15 08:39 | 21.80953 | 112.42667 | 27450 ft | 435 kts | 248° |
| 2026-04-15 08:40 | 21.79773 | 112.39669 | 27449 ft | 435 kts | 248° |
| 2026-04-15 08:40 | 21.78591 | 112.36674 | 27457 ft | 435 kts | 248° |
| 2026-04-15 08:40 | 21.77402 | 112.33677 | 27451 ft | 435 kts | 247° |
| 2026-04-15 08:40 | 21.76210 | 112.30689 | 27449 ft | 435 kts | 247° |
| 2026-04-15 08:41 | 21.75015 | 112.27695 | 27571 ft | 437 kts | 247° |
| 2026-04-15 08:41 | 21.73814 | 112.24690 | 27839 ft | 438 kts | 247° |
| 2026-04-15 08:41 | 21.72609 | 112.21674 | 28104 ft | 440 kts | 247° |
| 2026-04-15 08:41 | 21.71403 | 112.18647 | 28350 ft | 441 kts | 248° |
| 2026-04-15 08:42 | 21.70195 | 112.15607 | 28603 ft | 442 kts | 248° |
| 2026-04-15 08:42 | 21.68984 | 112.12564 | 28834 ft | 444 kts | 248° |
| 2026-04-15 08:42 | 21.67769 | 112.09511 | 29065 ft | 445 kts | 247° |
| 2026-04-15 08:42 | 21.66549 | 112.06449 | 29339 ft | 445 kts | 247° |
| 2026-04-15 08:43 | 21.65328 | 112.03397 | 29686 ft | 444 kts | 247° |
| 2026-04-15 08:43 | 21.64104 | 112.00354 | 30035 ft | 443 kts | 247° |
| 2026-04-15 08:43 | 21.62886 | 111.97323 | 30391 ft | 441 kts | 247° |
| 2026-04-15 08:43 | 21.61672 | 111.94299 | 30727 ft | 440 kts | 247° |
| 2026-04-15 08:44 | 21.60462 | 111.91286 | 31067 ft | 438 kts | 247° |
| 2026-04-15 08:44 | 21.59255 | 111.88285 | 31391 ft | 437 kts | 247° |
| 2026-04-15 08:44 | 21.58050 | 111.85288 | 31696 ft | 436 kts | 247° |
| 2026-04-15 08:44 | 21.56895 | 111.82280 | 32013 ft | 435 kts | 251° |
| 2026-04-15 08:45 | 21.56005 | 111.79183 | 32326 ft | 434 kts | 253° |
| 2026-04-15 08:45 | 21.55125 | 111.76086 | 32619 ft | 433 kts | 252° |
| 2026-04-15 08:45 | 21.54239 | 111.72996 | 32923 ft | 432 kts | 252° |
| 2026-04-15 08:45 | 21.53351 | 111.69916 | 33225 ft | 431 kts | 252° |
| 2026-04-15 08:46 | 21.52465 | 111.66844 | 33500 ft | 431 kts | 252° |
| 2026-04-15 08:46 | 21.51580 | 111.63769 | 33786 ft | 430 kts | 252° |
| 2026-04-15 08:46 | 21.50698 | 111.60707 | 34091 ft | 429 kts | 252° |
| 2026-04-15 08:46 | 21.49819 | 111.57650 | 34368 ft | 428 kts | 252° |
| 2026-04-15 08:47 | 21.48940 | 111.54596 | 34630 ft | 428 kts | 252° |
| 2026-04-15 08:47 | 21.48062 | 111.51545 | 34885 ft | 427 kts | 252° |
| 2026-04-15 08:47 | 21.47173 | 111.48462 | 35122 ft | 427 kts | 252° |
| 2026-04-15 08:47 | 21.46295 | 111.45420 | 35364 ft | 426 kts | 252° |
| 2026-04-15 08:48 | 21.45419 | 111.42382 | 35580 ft | 426 kts | 252° |
| 2026-04-15 08:48 | 21.44544 | 111.39347 | 35795 ft | 425 kts | 252° |
| 2026-04-15 08:48 | 21.43666 | 111.36312 | 35890 ft | 426 kts | 252° |
| 2026-04-15 08:49 | 21.41901 | 111.30232 | 35903 ft | 427 kts | 252° |
| 2026-04-15 08:49 | 21.40143 | 111.24194 | 35904 ft | 427 kts | 252° |
| 2026-04-15 08:50 | 21.38383 | 111.18114 | 35904 ft | 427 kts | 252° |
| 2026-04-15 08:50 | 21.36909 | 111.13025 | 35904 ft | 427 kts | 252° |
| 2026-04-15 08:51 | 21.35142 | 111.06947 | 35902 ft | 427 kts | 252° |
| 2026-04-15 08:51 | 21.33371 | 111.00870 | 35902 ft | 427 kts | 252° |
| 2026-04-15 08:52 | 21.31591 | 110.94792 | 35904 ft | 427 kts | 252° |
| 2026-04-15 08:52 | 21.29812 | 110.88717 | 35903 ft | 427 kts | 252° |
| 2026-04-15 08:53 | 21.28029 | 110.82636 | 35904 ft | 427 kts | 252° |
| 2026-04-15 08:53 | 21.26247 | 110.76557 | 35906 ft | 428 kts | 252° |
| 2026-04-15 08:54 | 21.24461 | 110.70473 | 35908 ft | 428 kts | 252° |
| 2026-04-15 08:54 | 21.22676 | 110.64394 | 35906 ft | 427 kts | 252° |
| 2026-04-15 08:55 | 21.20888 | 110.58320 | 35905 ft | 427 kts | 252° |
| 2026-04-15 08:55 | 21.19095 | 110.52241 | 35902 ft | 428 kts | 252° |
| 2026-04-15 08:56 | 21.17294 | 110.46169 | 35900 ft | 427 kts | 252° |
| 2026-04-15 08:56 | 21.15496 | 110.40105 | 35896 ft | 427 kts | 252° |
| 2026-04-15 08:57 | 21.14760 | 110.33824 | 35892 ft | 429 kts | 273° |
| 2026-04-15 08:57 | 21.16360 | 110.27650 | 35886 ft | 437 kts | 294° |
| 2026-04-15 08:58 | 21.19264 | 110.21916 | 35880 ft | 438 kts | 295° |
| 2026-04-15 08:58 | 21.23616 | 110.13301 | 35884 ft | 438 kts | 295° |
| 2026-04-15 08:59 | 21.26506 | 110.07544 | 35889 ft | 439 kts | 295° |
| 2026-04-15 08:59 | 21.29397 | 110.01786 | 35895 ft | 439 kts | 295° |
| 2026-04-15 09:00 | 21.32283 | 109.96027 | 35897 ft | 438 kts | 295° |
| 2026-04-15 09:00 | 21.35168 | 109.90268 | 35897 ft | 438 kts | 295° |
| 2026-04-15 09:01 | 21.38055 | 109.84515 | 35900 ft | 438 kts | 294° |
| 2026-04-15 09:01 | 21.40929 | 109.78764 | 35899 ft | 437 kts | 294° |
| 2026-04-15 09:02 | 21.43802 | 109.73014 | 35898 ft | 437 kts | 294° |
| 2026-04-15 09:02 | 21.46673 | 109.67264 | 35896 ft | 437 kts | 294° |
| 2026-04-15 09:03 | 21.49542 | 109.61515 | 35892 ft | 437 kts | 294° |
| 2026-04-15 09:03 | 21.52408 | 109.55758 | 35893 ft | 437 kts | 294° |
| 2026-04-15 09:04 | 21.55274 | 109.50003 | 35890 ft | 437 kts | 294° |
| 2026-04-15 09:04 | 21.58155 | 109.44262 | 35885 ft | 438 kts | 297° |
| 2026-04-15 09:05 | 21.61896 | 109.39045 | 35881 ft | 443 kts | 306° |
| 2026-04-15 09:05 | 21.65859 | 109.33976 | 35881 ft | 443 kts | 306° |
| 2026-04-15 09:06 | 21.69825 | 109.28904 | 35881 ft | 443 kts | 306° |
| 2026-04-15 09:06 | 21.73791 | 109.23828 | 35881 ft | 443 kts | 306° |
| 2026-04-15 09:07 | 21.77749 | 109.18745 | 35881 ft | 443 kts | 306° |
| 2026-04-15 09:07 | 21.81705 | 109.13659 | 35880 ft | 443 kts | 306° |
| 2026-04-15 09:08 | 21.85672 | 109.08567 | 35884 ft | 444 kts | 306° |
| 2026-04-15 09:08 | 21.89652 | 109.03488 | 35884 ft | 444 kts | 306° |
| 2026-04-15 09:09 | 21.93641 | 108.98400 | 35883 ft | 444 kts | 306° |
| 2026-04-15 09:09 | 21.97618 | 108.93309 | 35883 ft | 444 kts | 306° |
| 2026-04-15 09:10 | 22.01587 | 108.88224 | 35882 ft | 443 kts | 305° |
| 2026-04-15 09:10 | 22.05555 | 108.83137 | 35889 ft | 443 kts | 305° |
| 2026-04-15 09:11 | 22.09510 | 108.78057 | 35886 ft | 442 kts | 305° |
| 2026-04-15 09:11 | 22.13461 | 108.72989 | 35887 ft | 441 kts | 305° |
| 2026-04-15 09:12 | 22.17415 | 108.67940 | 35889 ft | 440 kts | 306° |
| 2026-04-15 09:12 | 22.21367 | 108.62897 | 35886 ft | 439 kts | 305° |
| 2026-04-15 09:13 | 22.25308 | 108.57855 | 35881 ft | 439 kts | 305° |
| 2026-04-15 09:13 | 22.29241 | 108.52807 | 35879 ft | 439 kts | 305° |
| 2026-04-15 09:14 | 22.33169 | 108.47766 | 35877 ft | 439 kts | 305° |
| 2026-04-15 09:14 | 22.37099 | 108.42722 | 35876 ft | 438 kts | 305° |
| 2026-04-15 09:15 | 22.41021 | 108.37682 | 35859 ft | 438 kts | 305° |
| 2026-04-15 09:15 | 22.44943 | 108.32639 | 35865 ft | 438 kts | 305° |
| 2026-04-15 09:16 | 22.48859 | 108.27593 | 35863 ft | 438 kts | 305° |
| 2026-04-15 09:16 | 22.52769 | 108.22540 | 35863 ft | 438 kts | 305° |
| 2026-04-15 09:17 | 22.56681 | 108.17484 | 35869 ft | 438 kts | 305° |
| 2026-04-15 09:17 | 22.60654 | 108.12481 | 35866 ft | 440 kts | 307° |
| 2026-04-15 09:18 | 22.64876 | 108.07678 | 35872 ft | 441 kts | 309° |
| 2026-04-15 09:18 | 22.69158 | 108.02934 | 35869 ft | 440 kts | 309° |
| 2026-04-15 09:19 | 22.73389 | 107.98150 | 35874 ft | 439 kts | 308° |
| 2026-04-15 09:19 | 22.77578 | 107.93331 | 35862 ft | 439 kts | 308° |
| 2026-04-15 09:20 | 22.81761 | 107.88508 | 35861 ft | 439 kts | 308° |
| 2026-04-15 09:20 | 22.85958 | 107.83702 | 35871 ft | 439 kts | 308° |
| 2026-04-15 09:21 | 22.90150 | 107.78896 | 35866 ft | 438 kts | 308° |
| 2026-04-15 09:21 | 22.94335 | 107.74092 | 35871 ft | 438 kts | 308° |
| 2026-04-15 09:22 | 22.98512 | 107.69284 | 35875 ft | 438 kts | 308° |
| 2026-04-15 09:22 | 23.02686 | 107.64464 | 35881 ft | 438 kts | 308° |
| 2026-04-15 09:23 | 23.06857 | 107.59657 | 35882 ft | 437 kts | 308° |
| 2026-04-15 09:23 | 23.11026 | 107.54855 | 35881 ft | 437 kts | 308° |
| 2026-04-15 09:24 | 23.15194 | 107.50052 | 35874 ft | 437 kts | 308° |
| 2026-04-15 09:24 | 23.19354 | 107.45246 | 35881 ft | 436 kts | 307° |
| 2026-04-15 09:25 | 23.23510 | 107.40443 | 35873 ft | 436 kts | 307° |
| 2026-04-15 09:25 | 23.27657 | 107.35634 | 35871 ft | 436 kts | 307° |
| 2026-04-15 09:26 | 23.31811 | 107.30825 | 35880 ft | 436 kts | 307° |
| 2026-04-15 09:26 | 23.35963 | 107.26015 | 35881 ft | 436 kts | 307° |
| 2026-04-15 09:27 | 23.40108 | 107.21203 | 35880 ft | 435 kts | 307° |
| 2026-04-15 09:27 | 23.44249 | 107.16389 | 35862 ft | 435 kts | 307° |
| 2026-04-15 09:28 | 23.48384 | 107.11572 | 35865 ft | 435 kts | 307° |
| 2026-04-15 09:28 | 23.52521 | 107.06761 | 35880 ft | 435 kts | 307° |
| 2026-04-15 09:29 | 23.55958 | 107.02759 | 35873 ft | 435 kts | 307° |
| 2026-04-15 09:29 | 23.60786 | 106.97123 | 35868 ft | 435 kts | 307° |
| 2026-04-15 09:30 | 23.64917 | 106.92295 | 35866 ft | 436 kts | 307° |
| 2026-04-15 09:30 | 23.68359 | 106.88279 | 35883 ft | 436 kts | 307° |
| 2026-04-15 09:31 | 23.72519 | 106.83418 | 35887 ft | 435 kts | 307° |
| 2026-04-15 09:31 | 23.76617 | 106.78621 | 35886 ft | 435 kts | 307° |
| 2026-04-15 09:32 | 23.80767 | 106.73759 | 35885 ft | 435 kts | 307° |
| 2026-04-15 09:32 | 23.84886 | 106.68920 | 35886 ft | 435 kts | 307° |
| 2026-04-15 09:33 | 23.88973 | 106.64118 | 35897 ft | 434 kts | 307° |
| 2026-04-15 09:33 | 23.92281 | 106.58760 | 35901 ft | 420 kts | 288° |
| 2026-04-15 09:34 | 23.93853 | 106.52701 | 35900 ft | 413 kts | 278° |
| 2026-04-15 09:34 | 23.95105 | 106.46525 | 35905 ft | 413 kts | 278° |
| 2026-04-15 09:35 | 23.96354 | 106.40393 | 35908 ft | 413 kts | 278° |
| 2026-04-15 09:35 | 23.97596 | 106.34251 | 35913 ft | 414 kts | 278° |
| 2026-04-15 09:36 | 23.98829 | 106.28098 | 35915 ft | 415 kts | 278° |
| 2026-04-15 09:36 | 24.00068 | 106.21944 | 35911 ft | 414 kts | 278° |
| 2026-04-15 09:37 | 24.01304 | 106.15789 | 35921 ft | 414 kts | 278° |
| 2026-04-15 09:37 | 24.02540 | 106.09633 | 35933 ft | 415 kts | 278° |
| 2026-04-15 09:38 | 24.03772 | 106.03470 | 35936 ft | 414 kts | 278° |
| 2026-04-15 09:38 | 24.04998 | 105.97313 | 35933 ft | 414 kts | 278° |
| 2026-04-15 09:39 | 24.06218 | 105.91150 | 35937 ft | 414 kts | 278° |
| 2026-04-15 09:39 | 24.07436 | 105.85002 | 35940 ft | 413 kts | 278° |
| 2026-04-15 09:40 | 24.08657 | 105.78860 | 35940 ft | 413 kts | 278° |
| 2026-04-15 09:40 | 24.09874 | 105.72724 | 35949 ft | 412 kts | 278° |
| 2026-04-15 09:41 | 24.11159 | 105.66604 | 35963 ft | 414 kts | 280° |
| 2026-04-15 09:41 | 24.12666 | 105.60526 | 35964 ft | 413 kts | 281° |
| 2026-04-15 09:42 | 24.14206 | 105.54468 | 35971 ft | 413 kts | 281° |
| 2026-04-15 09:42 | 24.15701 | 105.48403 | 35967 ft | 412 kts | 280° |
| 2026-04-15 09:43 | 24.17167 | 105.42332 | 35983 ft | 412 kts | 280° |
| 2026-04-15 09:43 | 24.18633 | 105.36270 | 35991 ft | 411 kts | 280° |
| 2026-04-15 09:44 | 24.20099 | 105.30218 | 36001 ft | 410 kts | 280° |
| 2026-04-15 09:44 | 24.21551 | 105.24223 | 36003 ft | 409 kts | 280° |
| 2026-04-15 09:45 | 24.22985 | 105.18195 | 36003 ft | 408 kts | 279° |
| 2026-04-15 09:45 | 24.24326 | 105.12117 | 36005 ft | 407 kts | 279° |
| 2026-04-15 09:46 | 24.25634 | 105.06087 | 36008 ft | 407 kts | 279° |
| 2026-04-15 09:46 | 24.26960 | 105.00062 | 36013 ft | 406 kts | 279° |
| 2026-04-15 09:47 | 24.28294 | 104.94049 | 36016 ft | 405 kts | 279° |
| 2026-04-15 09:47 | 24.29613 | 104.88047 | 36021 ft | 405 kts | 279° |
| 2026-04-15 09:48 | 24.30935 | 104.82055 | 36024 ft | 404 kts | 279° |
| 2026-04-15 09:48 | 24.32245 | 104.76067 | 36030 ft | 404 kts | 279° |
| 2026-04-15 09:49 | 24.33552 | 104.70088 | 36032 ft | 403 kts | 279° |
| 2026-04-15 09:49 | 24.34858 | 104.64115 | 36035 ft | 402 kts | 279° |
| 2026-04-15 09:50 | 24.36159 | 104.58154 | 36036 ft | 402 kts | 279° |
| 2026-04-15 09:50 | 24.37456 | 104.52192 | 36047 ft | 402 kts | 279° |
| 2026-04-15 09:51 | 24.38753 | 104.46233 | 36049 ft | 401 kts | 279° |
| 2026-04-15 09:51 | 24.40043 | 104.40281 | 36044 ft | 401 kts | 279° |
| 2026-04-15 09:52 | 24.41330 | 104.34326 | 36048 ft | 401 kts | 279° |
| 2026-04-15 09:52 | 24.42608 | 104.28401 | 36048 ft | 402 kts | 279° |
| 2026-04-15 09:53 | 24.43894 | 104.22444 | 36055 ft | 401 kts | 279° |
| 2026-04-15 09:53 | 24.45179 | 104.16481 | 36063 ft | 401 kts | 279° |
| 2026-04-15 09:54 | 24.46459 | 104.10521 | 36067 ft | 401 kts | 279° |
| 2026-04-15 09:54 | 24.47733 | 104.04561 | 36070 ft | 401 kts | 279° |
| 2026-04-15 09:55 | 24.49005 | 103.98598 | 36078 ft | 401 kts | 279° |
| 2026-04-15 09:55 | 24.50276 | 103.92633 | 36082 ft | 401 kts | 279° |
| 2026-04-15 09:56 | 24.51544 | 103.86678 | 36088 ft | 400 kts | 279° |
| 2026-04-15 09:57 | 24.53442 | 103.77743 | 36103 ft | 400 kts | 278° |
| 2026-04-15 09:57 | 24.55230 | 103.71926 | 36106 ft | 407 kts | 290° |
| 2026-04-15 09:58 | 24.57728 | 103.66334 | 36106 ft | 408 kts | 290° |
| 2026-04-15 09:58 | 24.60216 | 103.60740 | 36109 ft | 407 kts | 290° |
| 2026-04-15 09:59 | 24.62697 | 103.55141 | 36107 ft | 408 kts | 290° |
| 2026-04-15 09:59 | 24.65178 | 103.49538 | 36119 ft | 408 kts | 290° |
| 2026-04-15 10:00 | 24.67648 | 103.43931 | 36131 ft | 407 kts | 290° |
| 2026-04-15 10:00 | 24.70206 | 103.38135 | 36127 ft | 407 kts | 290° |
| 2026-04-15 10:01 | 24.72680 | 103.32530 | 36134 ft | 407 kts | 290° |
| 2026-04-15 10:01 | 24.75154 | 103.26920 | 36145 ft | 407 kts | 289° |
| 2026-04-15 10:02 | 24.77624 | 103.21312 | 36146 ft | 407 kts | 290° |
| 2026-04-15 10:02 | 24.80091 | 103.15700 | 36151 ft | 407 kts | 289° |
| 2026-04-15 10:03 | 24.82550 | 103.10093 | 36151 ft | 407 kts | 289° |
| 2026-04-15 10:03 | 24.85007 | 103.04484 | 36152 ft | 407 kts | 289° |
| 2026-04-15 10:04 | 24.87466 | 102.98871 | 36155 ft | 407 kts | 289° |
| 2026-04-15 10:04 | 24.89507 | 102.94213 | 36158 ft | 406 kts | 289° |
| 2026-04-15 10:05 | 24.91954 | 102.88604 | 36161 ft | 406 kts | 289° |
| 2026-04-15 10:05 | 24.94416 | 102.82998 | 36160 ft | 407 kts | 290° |
| 2026-04-15 10:06 | 24.96912 | 102.77404 | 36158 ft | 407 kts | 290° |
| 2026-04-15 10:06 | 24.99412 | 102.71808 | 36159 ft | 407 kts | 290° |
| 2026-04-15 10:07 | 25.01900 | 102.66205 | 36163 ft | 407 kts | 289° |
| 2026-04-15 10:07 | 25.04378 | 102.60601 | 36161 ft | 407 kts | 289° |
| 2026-04-15 10:08 | 25.06864 | 102.54991 | 36164 ft | 408 kts | 291° |
| 2026-04-15 10:08 | 25.09661 | 102.49523 | 36158 ft | 411 kts | 294° |
| 2026-04-15 10:09 | 25.12689 | 102.44149 | 36162 ft | 413 kts | 295° |
| 2026-04-15 10:09 | 25.15694 | 102.38764 | 36153 ft | 412 kts | 294° |
| 2026-04-15 10:10 | 25.18627 | 102.33346 | 36155 ft | 412 kts | 293° |
| 2026-04-15 10:10 | 25.21548 | 102.27902 | 36161 ft | 412 kts | 294° |
| 2026-04-15 10:11 | 25.24472 | 102.22461 | 36166 ft | 412 kts | 293° |
| 2026-04-15 10:11 | 25.27400 | 102.17016 | 35876 ft | 412 kts | 293° |
| 2026-04-15 10:11 | 25.28863 | 102.14300 | 35502 ft | 412 kts | 293° |
| 2026-04-15 10:12 | 25.30329 | 102.11582 | 35129 ft | 412 kts | 294° |
| 2026-04-15 10:12 | 25.31797 | 102.08857 | 34752 ft | 413 kts | 294° |
| 2026-04-15 10:12 | 25.33262 | 102.06129 | 34378 ft | 413 kts | 294° |
| 2026-04-15 10:12 | 25.34729 | 102.03390 | 33996 ft | 414 kts | 294° |
| 2026-04-15 10:13 | 25.36194 | 102.00646 | 33626 ft | 416 kts | 294° |
| 2026-04-15 10:13 | 25.37665 | 101.97887 | 33245 ft | 417 kts | 294° |
| 2026-04-15 10:13 | 25.39142 | 101.95118 | 32875 ft | 418 kts | 294° |
| 2026-04-15 10:13 | 25.40621 | 101.92357 | 32495 ft | 417 kts | 294° |
| 2026-04-15 10:14 | 25.42104 | 101.89593 | 32130 ft | 418 kts | 295° |
| 2026-04-15 10:14 | 25.43588 | 101.86826 | 31745 ft | 418 kts | 295° |
| 2026-04-15 10:14 | 25.45070 | 101.84054 | 31366 ft | 419 kts | 295° |
| 2026-04-15 10:14 | 25.46552 | 101.81277 | 30990 ft | 419 kts | 295° |
| 2026-04-15 10:15 | 25.48031 | 101.78501 | 30609 ft | 418 kts | 295° |
| 2026-04-15 10:15 | 25.49509 | 101.75733 | 30233 ft | 417 kts | 295° |
| 2026-04-15 10:15 | 25.50986 | 101.72965 | 29862 ft | 418 kts | 295° |
| 2026-04-15 10:15 | 25.52459 | 101.70204 | 29486 ft | 416 kts | 295° |
| 2026-04-15 10:16 | 25.53925 | 101.67454 | 29107 ft | 414 kts | 295° |
| 2026-04-15 10:16 | 25.55385 | 101.64707 | 28734 ft | 413 kts | 295° |
| 2026-04-15 10:16 | 25.56817 | 101.62011 | 28362 ft | 411 kts | 296° |
| 2026-04-15 10:16 | 25.58280 | 101.59260 | 27978 ft | 408 kts | 296° |
| 2026-04-15 10:17 | 25.59718 | 101.56560 | 27602 ft | 406 kts | 296° |
| 2026-04-15 10:17 | 25.61148 | 101.53871 | 27232 ft | 404 kts | 296° |
| 2026-04-15 10:17 | 25.62550 | 101.51228 | 26860 ft | 402 kts | 296° |
| 2026-04-15 10:17 | 25.63962 | 101.48561 | 26479 ft | 400 kts | 296° |
| 2026-04-15 10:18 | 25.65366 | 101.45908 | 26099 ft | 398 kts | 296° |
| 2026-04-15 10:18 | 25.66761 | 101.43269 | 25719 ft | 396 kts | 296° |
| 2026-04-15 10:18 | 25.68150 | 101.40643 | 25345 ft | 394 kts | 296° |
| 2026-04-15 10:18 | 25.69533 | 101.38030 | 24967 ft | 392 kts | 296° |
| 2026-04-15 10:19 | 25.70913 | 101.35427 | 24583 ft | 390 kts | 296° |
| 2026-04-15 10:19 | 25.72284 | 101.32841 | 24212 ft | 388 kts | 296° |
| 2026-04-15 10:19 | 25.73645 | 101.30265 | 23840 ft | 387 kts | 296° |
| 2026-04-15 10:19 | 25.75002 | 101.27691 | 23462 ft | 385 kts | 296° |
| 2026-04-15 10:20 | 25.76351 | 101.25129 | 23085 ft | 384 kts | 296° |
| 2026-04-15 10:20 | 25.77697 | 101.22571 | 22710 ft | 383 kts | 296° |
| 2026-04-15 10:20 | 25.79041 | 101.20027 | 22335 ft | 381 kts | 296° |
| 2026-04-15 10:20 | 25.80378 | 101.17495 | 21960 ft | 379 kts | 296° |
| 2026-04-15 10:21 | 25.81704 | 101.14974 | 21579 ft | 378 kts | 296° |
| 2026-04-15 10:21 | 25.83024 | 101.12454 | 21203 ft | 377 kts | 296° |
| 2026-04-15 10:21 | 25.84345 | 101.09943 | 20880 ft | 376 kts | 296° |
| 2026-04-15 10:21 | 25.85662 | 101.07439 | 20625 ft | 374 kts | 297° |
| 2026-04-15 10:22 | 25.86956 | 101.04984 | 20371 ft | 363 kts | 296° |
| 2026-04-15 10:22 | 25.88211 | 101.02601 | 20123 ft | 353 kts | 296° |
| 2026-04-15 10:22 | 25.89429 | 101.00281 | 19871 ft | 343 kts | 296° |
| 2026-04-15 10:22 | 25.90616 | 100.98016 | 19619 ft | 336 kts | 296° |
| 2026-04-15 10:23 | 25.91778 | 100.95796 | 19365 ft | 330 kts | 296° |
| 2026-04-15 10:23 | 25.92917 | 100.93618 | 19114 ft | 323 kts | 296° |
| 2026-04-15 10:23 | 25.94031 | 100.91490 | 18859 ft | 315 kts | 296° |
| 2026-04-15 10:23 | 25.95127 | 100.89407 | 18611 ft | 310 kts | 296° |
| 2026-04-15 10:24 | 25.96204 | 100.87356 | 18365 ft | 306 kts | 296° |
| 2026-04-15 10:24 | 25.97272 | 100.85314 | 18113 ft | 305 kts | 296° |
| 2026-04-15 10:24 | 25.98334 | 100.83275 | 17871 ft | 304 kts | 296° |
| 2026-04-15 10:24 | 25.99391 | 100.81236 | 17739 ft | 305 kts | 296° |
| 2026-04-15 10:25 | 26.00451 | 100.79199 | 17753 ft | 304 kts | 296° |
| 2026-04-15 10:25 | 26.01515 | 100.77162 | 17758 ft | 305 kts | 296° |
| 2026-04-15 10:25 | 26.02581 | 100.75116 | 17754 ft | 307 kts | 296° |
| 2026-04-15 10:25 | 26.03650 | 100.73062 | 17744 ft | 306 kts | 296° |
| 2026-04-15 10:26 | 26.04715 | 100.71013 | 17750 ft | 306 kts | 296° |
| 2026-04-15 10:26 | 26.05779 | 100.68966 | 17750 ft | 306 kts | 296° |
| 2026-04-15 10:26 | 26.06847 | 100.66915 | 17749 ft | 306 kts | 296° |
| 2026-04-15 10:26 | 26.07916 | 100.64866 | 17751 ft | 306 kts | 296° |
| 2026-04-15 10:27 | 26.08984 | 100.62820 | 17748 ft | 306 kts | 296° |
| 2026-04-15 10:27 | 26.10040 | 100.60794 | 17745 ft | 297 kts | 296° |
| 2026-04-15 10:27 | 26.11056 | 100.58844 | 17653 ft | 287 kts | 296° |
| 2026-04-15 10:27 | 26.12049 | 100.56930 | 17414 ft | 284 kts | 296° |
| 2026-04-15 10:28 | 26.13030 | 100.55046 | 17232 ft | 277 kts | 296° |
| 2026-04-15 10:28 | 26.13983 | 100.53220 | 17106 ft | 267 kts | 295° |
| 2026-04-15 10:28 | 26.14768 | 100.51411 | 16947 ft | 255 kts | 288° |
| 2026-04-15 10:28 | 26.15327 | 100.49573 | 16706 ft | 248 kts | 284° |
| 2026-04-15 10:29 | 26.15830 | 100.47740 | 16454 ft | 247 kts | 284° |
| 2026-04-15 10:29 | 26.16333 | 100.45916 | 16210 ft | 246 kts | 284° |
| 2026-04-15 10:29 | 26.16837 | 100.44086 | 15967 ft | 247 kts | 283° |
| 2026-04-15 10:29 | 26.17339 | 100.42285 | 15790 ft | 242 kts | 284° |
| 2026-04-15 10:30 | 26.17837 | 100.40501 | 15735 ft | 240 kts | 284° |
| 2026-04-15 10:30 | 26.18333 | 100.38722 | 15740 ft | 241 kts | 284° |
| 2026-04-15 10:30 | 26.18829 | 100.36938 | 15741 ft | 241 kts | 284° |
| 2026-04-15 10:30 | 26.19321 | 100.35153 | 15738 ft | 241 kts | 284° |
| 2026-04-15 10:31 | 26.19811 | 100.33376 | 15737 ft | 240 kts | 283° |
| 2026-04-15 10:31 | 26.20303 | 100.31601 | 15734 ft | 240 kts | 284° |
| 2026-04-15 10:31 | 26.20795 | 100.29829 | 15727 ft | 238 kts | 284° |
| 2026-04-15 10:31 | 26.21282 | 100.28072 | 15728 ft | 237 kts | 284° |
| 2026-04-15 10:32 | 26.21769 | 100.26307 | 15724 ft | 240 kts | 284° |
| 2026-04-15 10:32 | 26.22259 | 100.24525 | 15724 ft | 241 kts | 283° |
| 2026-04-15 10:32 | 26.22750 | 100.22741 | 15722 ft | 241 kts | 283° |
| 2026-04-15 10:32 | 26.23238 | 100.20956 | 15720 ft | 241 kts | 283° |
| 2026-04-15 10:33 | 26.23727 | 100.19164 | 15558 ft | 242 kts | 283° |
| 2026-04-15 10:33 | 26.24214 | 100.17382 | 15397 ft | 239 kts | 284° |
| 2026-04-15 10:33 | 26.24700 | 100.15615 | 15193 ft | 239 kts | 283° |
| 2026-04-15 10:33 | 26.25189 | 100.13844 | 14994 ft | 238 kts | 284° |
| 2026-04-15 10:34 | 26.25933 | 100.12187 | 14792 ft | 245 kts | 309° |
| 2026-04-15 10:34 | 26.27414 | 100.11213 | 14580 ft | 257 kts | 345° |
| 2026-04-15 10:34 | 26.29207 | 100.11406 | 14455 ft | 269 kts | 24° |
| 2026-04-15 10:34 | 26.30902 | 100.12407 | 14105 ft | 280 kts | 25° |
| 2026-04-15 10:35 | 26.32710 | 100.13190 | 13817 ft | 275 kts | 12° |
| 2026-04-15 10:35 | 26.34508 | 100.13695 | 13797 ft | 258 kts | 7° |
| 2026-04-15 10:35 | 26.36257 | 100.14128 | 13815 ft | 256 kts | 6° |
| 2026-04-15 10:35 | 26.38018 | 100.14471 | 13429 ft | 260 kts | 6° |
| 2026-04-15 10:36 | 26.39792 | 100.14962 | 12765 ft | 265 kts | 12° |
| 2026-04-15 10:36 | 26.41530 | 100.15560 | 12343 ft | 255 kts | 13° |
| 2026-04-15 10:36 | 26.43190 | 100.16133 | 12005 ft | 247 kts | 12° |
| 2026-04-15 10:36 | 26.44824 | 100.16688 | 11678 ft | 244 kts | 13° |
| 2026-04-15 10:37 | 26.46432 | 100.17235 | 11352 ft | 239 kts | 13° |
| 2026-04-15 10:37 | 26.48011 | 100.17771 | 11039 ft | 235 kts | 13° |
| 2026-04-15 10:37 | 26.49566 | 100.18300 | 10728 ft | 232 kts | 14° |
| 2026-04-15 10:37 | 26.51093 | 100.18819 | 10431 ft | 228 kts | 14° |
| 2026-04-15 10:38 | 26.52599 | 100.19330 | 10124 ft | 225 kts | 14° |
| 2026-04-15 10:38 | 26.54087 | 100.19836 | 9825 ft | 222 kts | 14° |
| 2026-04-15 10:38 | 26.55538 | 100.20330 | 9540 ft | 214 kts | 15° |
| 2026-04-15 10:38 | 26.56927 | 100.20804 | 9254 ft | 205 kts | 15° |
| 2026-04-15 10:39 | 26.58263 | 100.21258 | 8996 ft | 196 kts | 15° |
| 2026-04-15 10:39 | 26.59542 | 100.21693 | 8735 ft | 188 kts | 15° |
| 2026-04-15 10:39 | 26.60776 | 100.22113 | 8492 ft | 183 kts | 15° |
| 2026-04-15 10:39 | 26.61982 | 100.22524 | 8250 ft | 180 kts | 15° |
| 2026-04-15 10:40 | 26.63175 | 100.22930 | 8011 ft | 178 kts | 15° |
| 2026-04-15 10:40 | 26.64356 | 100.23332 | 7781 ft | 176 kts | 15° |
| 2026-04-15 10:40 | 26.65520 | 100.23731 | 7559 ft | 175 kts | 15° |
| 2026-04-15 10:40 | 26.66678 | 100.24125 | 7368 ft | 173 kts | 16° |
| 2026-04-15 10:41 | 26.67730 | 100.24484 | 7350 ft | 138 kts | 17° |
| 2026-04-15 10:41 | 26.68392 | 100.24709 | 7354 ft | 61 kts | 17° |
| 2026-04-15 10:41 | 26.68690 | 100.24810 | 7354 ft | 41 kts | 17° |
| 2026-04-15 10:41 | 26.68928 | 100.24889 | 7355 ft | 20 kts | 17° |
| 2026-04-15 10:42 | 26.68969 | 100.24969 | 7353 ft | 10 kts | 105° |
| 2026-04-15 10:42 | 26.68951 | 100.25036 | 7353 ft | 8 kts | 108° |
| 2026-04-15 10:42 | 26.68921 | 100.25071 | 7353 ft | 6 kts | 177° |
| 2026-04-15 10:42 | 26.68872 | 100.25057 | 7353 ft | 10 kts | 197° |
| 2026-04-15 10:43 | 26.68791 | 100.25029 | 7353 ft | 15 kts | 197° |
| 2026-04-15 10:43 | 26.68679 | 100.24991 | 7353 ft | 18 kts | 197° |
| 2026-04-15 10:43 | 26.68557 | 100.24949 | 7352 ft | 19 kts | 197° |
| 2026-04-15 10:43 | 26.68429 | 100.24906 | 7353 ft | 20 kts | 196° |
| 2026-04-15 10:44 | 26.68295 | 100.24860 | 7353 ft | 20 kts | 197° |
| 2026-04-15 10:44 | 26.68170 | 100.24818 | 7353 ft | 17 kts | 197° |
| 2026-04-15 10:44 | 26.68089 | 100.24790 | 7353 ft | 13 kts | 197° |
| 2026-04-15 10:44 | 26.67983 | 100.24754 | 7353 ft | 18 kts | 197° |
| 2026-04-15 10:45 | 26.67861 | 100.24713 | 7353 ft | 19 kts | 197° |
| 2026-04-15 10:45 | 26.67733 | 100.24669 | 7354 ft | 20 kts | 197° |
| 2026-04-15 10:45 | 26.67644 | 100.24639 | 7352 ft | 20 kts | 197° |
| 2026-04-15 10:45 | 26.67508 | 100.24593 | 7353 ft | 15 kts | 197° |
| 2026-04-15 10:46 | 26.67441 | 100.24570 | 7353 ft | 15 kts | 197° |
| 2026-04-15 10:46 | 26.67337 | 100.24534 | 7353 ft | 15 kts | 197° |
| 2026-04-15 10:46 | 26.67231 | 100.24498 | 7353 ft | 16 kts | 197° |
| 2026-04-15 10:46 | 26.67139 | 100.24467 | 7353 ft | 11 kts | 197° |
| 2026-04-15 10:47 | 26.67064 | 100.24459 | 7355 ft | 10 kts | 153° |
| 2026-04-15 10:47 | 26.67040 | 100.24511 | 7353 ft | 7 kts | 105° |
| 2026-04-15 10:47 | 26.67021 | 100.24544 | 7353 ft | 4 kts | 155° |
| 2026-04-15 10:47 | 26.66997 | 100.24543 | 7353 ft | 4 kts | 189° |
| 2026-04-15 10:48 | 26.66972 | 100.24534 | 7353 ft | 3 kts | 197° |
| 2026-04-15 10:48 | 26.66971 | 100.24534 | 7353 ft | 0 kts | 197° |